sensor_id;sensor_type;location;lat;lon;timestamp;temperature;humidity
10447;DHT22;5271;44.422;26.092;2023-02-18T00:00:55;14.60;92.50
10447;DHT22;5271;44.422;26.092;2023-02-18T00:03:23;14.50;92.50
10447;DHT22;5271;44.422;26.092;2023-02-18T00:05:50;14.50;92.50
10447;DHT22;5271;44.422;26.092;2023-02-18T00:08:17;14.60;92.60
10447;DHT22;5271;44.422;26.092;2023-02-18T00:10:43;14.60;92.60
10447;DHT22;5271;44.422;26.092;2023-02-18T00:13:10;14.50;92.70
10447;DHT22;5271;44.422;26.092;2023-02-18T00:15:38;14.50;92.70
10447;DHT22;5271;44.422;26.092;2023-02-18T00:18:06;14.50;92.70
10447;DHT22;5271;44.422;26.092;2023-02-18T00:20:33;14.50;92.70
10447;DHT22;5271;44.422;26.092;2023-02-18T00:23:01;14.50;92.80
10447;DHT22;5271;44.422;26.092;2023-02-18T00:25:28;14.50;92.90
10447;DHT22;5271;44.422;26.092;2023-02-18T00:27:55;14.50;93.00
10447;DHT22;5271;44.422;26.092;2023-02-18T00:30:22;14.50;93.00
10447;DHT22;5271;44.422;26.092;2023-02-18T00:32:49;14.50;93.00
10447;DHT22;5271;44.422;26.092;2023-02-18T00:35:17;14.50;93.00
10447;DHT22;5271;44.422;26.092;2023-02-18T00:37:44;14.50;93.00
10447;DHT22;5271;44.422;26.092;2023-02-18T00:40:11;14.50;93.00
10447;DHT22;5271;44.422;26.092;2023-02-18T00:42:38;14.60;93.00
10447;DHT22;5271;44.422;26.092;2023-02-18T00:45:06;14.60;93.00
10447;DHT22;5271;44.422;26.092;2023-02-18T00:47:33;14.60;93.10
10447;DHT22;5271;44.422;26.092;2023-02-18T00:49:59;14.50;93.00
10447;DHT22;5271;44.422;26.092;2023-02-18T00:52:28;14.50;93.10
10447;DHT22;5271;44.422;26.092;2023-02-18T00:54:54;14.50;93.00
10447;DHT22;5271;44.422;26.092;2023-02-18T00:57:21;14.50;93.10
10447;DHT22;5271;44.422;26.092;2023-02-18T00:59:48;14.50;93.10
10447;DHT22;5271;44.422;26.092;2023-02-18T01:02:15;14.50;93.10
10447;DHT22;5271;44.422;26.092;2023-02-18T01:04:42;14.60;93.10
10447;DHT22;5271;44.422;26.092;2023-02-18T01:07:09;14.60;93.10
10447;DHT22;5271;44.422;26.092;2023-02-18T01:09:37;14.60;93.10
10447;DHT22;5271;44.422;26.092;2023-02-18T01:12:04;14.60;93.10
10447;DHT22;5271;44.422;26.092;2023-02-18T01:14:31;14.60;93.10
10447;DHT22;5271;44.422;26.092;2023-02-18T01:16:58;14.60;93.10
10447;DHT22;5271;44.422;26.092;2023-02-18T01:19:25;14.60;93.10
10447;DHT22;5271;44.422;26.092;2023-02-18T01:21:52;14.60;93.10
10447;DHT22;5271;44.422;26.092;2023-02-18T01:24:19;14.60;93.10
10447;DHT22;5271;44.422;26.092;2023-02-18T01:26:47;14.60;93.10
10447;DHT22;5271;44.422;26.092;2023-02-18T01:29:14;14.60;93.20
10447;DHT22;5271;44.422;26.092;2023-02-18T01:31:41;14.60;93.20
10447;DHT22;5271;44.422;26.092;2023-02-18T01:34:08;14.60;93.40
10447;DHT22;5271;44.422;26.092;2023-02-18T01:36:35;14.60;93.20
10447;DHT22;5271;44.422;26.092;2023-02-18T01:39:02;14.60;93.20
10447;DHT22;5271;44.422;26.092;2023-02-18T01:41:30;14.60;93.30
10447;DHT22;5271;44.422;26.092;2023-02-18T01:44:26;14.60;93.30
10447;DHT22;5271;44.422;26.092;2023-02-18T01:46:53;14.60;93.50
10447;DHT22;5271;44.422;26.092;2023-02-18T01:49:24;14.60;93.40
10447;DHT22;5271;44.422;26.092;2023-02-18T01:51:54;14.60;93.30
10447;DHT22;5271;44.422;26.092;2023-02-18T01:54:26;14.60;93.40
10447;DHT22;5271;44.422;26.092;2023-02-18T01:56:56;14.60;93.40
10447;DHT22;5271;44.422;26.092;2023-02-18T01:59:30;14.60;93.50
10447;DHT22;5271;44.422;26.092;2023-02-18T02:01:57;14.60;93.50
10447;DHT22;5271;44.422;26.092;2023-02-18T02:04:25;14.60;93.50
10447;DHT22;5271;44.422;26.092;2023-02-18T02:06:52;14.60;93.40
10447;DHT22;5271;44.422;26.092;2023-02-18T02:09:20;14.60;93.50
10447;DHT22;5271;44.422;26.092;2023-02-18T02:12:23;14.50;93.60
10447;DHT22;5271;44.422;26.092;2023-02-18T02:15:08;14.50;93.90
10447;DHT22;5271;44.422;26.092;2023-02-18T02:17:43;14.50;93.80
10447;DHT22;5271;44.422;26.092;2023-02-18T02:20:31;14.50;93.80
10447;DHT22;5271;44.422;26.092;2023-02-18T02:32:40;14.50;94.10
10447;DHT22;5271;44.422;26.092;2023-02-18T02:35:15;14.50;94.40
10447;DHT22;5271;44.422;26.092;2023-02-18T02:37:49;14.40;94.50
10447;DHT22;5271;44.422;26.092;2023-02-18T02:40:23;14.30;94.60
10447;DHT22;5271;44.422;26.092;2023-02-18T02:42:59;14.40;94.70
10447;DHT22;5271;44.422;26.092;2023-02-18T02:45:37;14.40;94.70
10447;DHT22;5271;44.422;26.092;2023-02-18T02:48:12;14.40;94.70
10447;DHT22;5271;44.422;26.092;2023-02-18T02:50:45;14.40;94.70
10447;DHT22;5271;44.422;26.092;2023-02-18T02:53:16;14.40;94.70
10447;DHT22;5271;44.422;26.092;2023-02-18T02:55:44;14.50;94.70
10447;DHT22;5271;44.422;26.092;2023-02-18T02:58:14;14.40;94.80
10447;DHT22;5271;44.422;26.092;2023-02-18T03:00:49;14.40;94.80
10447;DHT22;5271;44.422;26.092;2023-02-18T03:03:41;14.50;94.80
10447;DHT22;5271;44.422;26.092;2023-02-18T03:06:26;14.50;95.00
10447;DHT22;5271;44.422;26.092;2023-02-18T03:09:03;14.50;94.90
10447;DHT22;5271;44.422;26.092;2023-02-18T03:11:40;14.50;95.10
10447;DHT22;5271;44.422;26.092;2023-02-18T03:14:14;14.50;94.80
10447;DHT22;5271;44.422;26.092;2023-02-18T03:16:46;14.50;94.80
10447;DHT22;5271;44.422;26.092;2023-02-18T03:19:19;14.50;94.90
10447;DHT22;5271;44.422;26.092;2023-02-18T03:21:52;14.40;95.10
10447;DHT22;5271;44.422;26.092;2023-02-18T03:24:23;14.40;95.10
10447;DHT22;5271;44.422;26.092;2023-02-18T03:26:55;14.40;95.10
10447;DHT22;5271;44.422;26.092;2023-02-18T03:29:24;14.40;95.20
10447;DHT22;5271;44.422;26.092;2023-02-18T03:31:54;14.40;95.10
10447;DHT22;5271;44.422;26.092;2023-02-18T03:34:27;14.40;95.00
10447;DHT22;5271;44.422;26.092;2023-02-18T03:36:57;14.40;95.20
10447;DHT22;5271;44.422;26.092;2023-02-18T03:39:26;14.40;95.20
10447;DHT22;5271;44.422;26.092;2023-02-18T03:41:55;14.40;95.10
10447;DHT22;5271;44.422;26.092;2023-02-18T03:44:23;14.40;95.20
10447;DHT22;5271;44.422;26.092;2023-02-18T03:46:51;14.40;95.30
10447;DHT22;5271;44.422;26.092;2023-02-18T03:49:18;14.40;95.40
10447;DHT22;5271;44.422;26.092;2023-02-18T03:51:45;14.40;95.40
10447;DHT22;5271;44.422;26.092;2023-02-18T03:54:14;14.40;95.50
10447;DHT22;5271;44.422;26.092;2023-02-18T03:56:41;14.40;95.50
10447;DHT22;5271;44.422;26.092;2023-02-18T03:59:09;14.40;95.50
10447;DHT22;5271;44.422;26.092;2023-02-18T04:01:36;14.40;95.60
10447;DHT22;5271;44.422;26.092;2023-02-18T04:04:04;14.40;95.60
10447;DHT22;5271;44.422;26.092;2023-02-18T04:06:30;14.40;95.60
10447;DHT22;5271;44.422;26.092;2023-02-18T04:08:57;14.40;95.70
10447;DHT22;5271;44.422;26.092;2023-02-18T04:11:26;14.40;95.80
10447;DHT22;5271;44.422;26.092;2023-02-18T04:13:53;14.40;95.80
10447;DHT22;5271;44.422;26.092;2023-02-18T04:16:19;14.40;95.80
10447;DHT22;5271;44.422;26.092;2023-02-18T04:18:46;14.40;95.80
10447;DHT22;5271;44.422;26.092;2023-02-18T04:21:13;14.40;95.80
10447;DHT22;5271;44.422;26.092;2023-02-18T04:23:40;14.40;95.60
10447;DHT22;5271;44.422;26.092;2023-02-18T04:26:07;14.50;95.50
10447;DHT22;5271;44.422;26.092;2023-02-18T04:28:35;14.40;95.50
10447;DHT22;5271;44.422;26.092;2023-02-18T04:31:02;14.40;95.60
10447;DHT22;5271;44.422;26.092;2023-02-18T04:33:29;14.40;95.70
10447;DHT22;5271;44.422;26.092;2023-02-18T04:35:56;14.30;95.70
10447;DHT22;5271;44.422;26.092;2023-02-18T04:38:23;14.40;96.00
10447;DHT22;5271;44.422;26.092;2023-02-18T04:40:49;14.40;95.60
10447;DHT22;5271;44.422;26.092;2023-02-18T04:43:16;14.40;95.60
10447;DHT22;5271;44.422;26.092;2023-02-18T04:45:44;14.40;95.70
10447;DHT22;5271;44.422;26.092;2023-02-18T04:48:11;14.40;95.70
10447;DHT22;5271;44.422;26.092;2023-02-18T04:50:38;14.40;95.70
10447;DHT22;5271;44.422;26.092;2023-02-18T04:53:05;14.40;95.70
10447;DHT22;5271;44.422;26.092;2023-02-18T04:55:32;14.40;95.80
10447;DHT22;5271;44.422;26.092;2023-02-18T04:57:59;14.40;96.00
10447;DHT22;5271;44.422;26.092;2023-02-18T05:00:26;14.40;96.10
10447;DHT22;5271;44.422;26.092;2023-02-18T05:02:55;14.30;96.10
10447;DHT22;5271;44.422;26.092;2023-02-18T05:05:22;14.20;96.20
10447;DHT22;5271;44.422;26.092;2023-02-18T05:07:49;14.30;96.30
10447;DHT22;5271;44.422;26.092;2023-02-18T05:10:16;14.20;96.40
10447;DHT22;5271;44.422;26.092;2023-02-18T05:12:43;14.20;96.40
10447;DHT22;5271;44.422;26.092;2023-02-18T05:15:10;14.30;96.40
10447;DHT22;5271;44.422;26.092;2023-02-18T05:17:37;14.20;96.40
10447;DHT22;5271;44.422;26.092;2023-02-18T05:20:06;14.30;96.40
10447;DHT22;5271;44.422;26.092;2023-02-18T05:22:33;14.20;96.40
10447;DHT22;5271;44.422;26.092;2023-02-18T05:25:00;14.30;96.40
10447;DHT22;5271;44.422;26.092;2023-02-18T05:27:27;14.20;96.40
10447;DHT22;5271;44.422;26.092;2023-02-18T05:29:54;14.30;96.50
10447;DHT22;5271;44.422;26.092;2023-02-18T05:32:21;14.20;96.50
10447;DHT22;5271;44.422;26.092;2023-02-18T05:34:48;14.20;96.60
10447;DHT22;5271;44.422;26.092;2023-02-18T05:37:16;14.20;96.70
10447;DHT22;5271;44.422;26.092;2023-02-18T05:39:44;14.20;96.70
10447;DHT22;5271;44.422;26.092;2023-02-18T05:42:11;14.20;96.70
10447;DHT22;5271;44.422;26.092;2023-02-18T05:44:38;14.20;96.80
10447;DHT22;5271;44.422;26.092;2023-02-18T05:47:06;14.30;96.70
10447;DHT22;5271;44.422;26.092;2023-02-18T05:49:34;14.30;96.60
10447;DHT22;5271;44.422;26.092;2023-02-18T05:52:01;14.30;96.70
10447;DHT22;5271;44.422;26.092;2023-02-18T05:54:29;14.30;96.90
10447;DHT22;5271;44.422;26.092;2023-02-18T05:56:56;14.20;97.00
10447;DHT22;5271;44.422;26.092;2023-02-18T05:59:23;14.20;97.20
10447;DHT22;5271;44.422;26.092;2023-02-18T06:01:50;14.20;97.20
10447;DHT22;5271;44.422;26.092;2023-02-18T06:04:17;14.20;97.20
10447;DHT22;5271;44.422;26.092;2023-02-18T06:06:44;14.20;97.20
10447;DHT22;5271;44.422;26.092;2023-02-18T06:09:12;14.20;97.30
10447;DHT22;5271;44.422;26.092;2023-02-18T06:11:40;14.20;97.30
10447;DHT22;5271;44.422;26.092;2023-02-18T06:14:07;14.20;97.30
10447;DHT22;5271;44.422;26.092;2023-02-18T06:16:34;14.20;97.40
10447;DHT22;5271;44.422;26.092;2023-02-18T06:19:01;14.20;97.30
10447;DHT22;5271;44.422;26.092;2023-02-18T06:21:28;14.20;97.40
10447;DHT22;5271;44.422;26.092;2023-02-18T06:23:55;14.20;97.30
10447;DHT22;5271;44.422;26.092;2023-02-18T06:26:22;14.20;97.40
10447;DHT22;5271;44.422;26.092;2023-02-18T06:28:50;14.20;97.40
10447;DHT22;5271;44.422;26.092;2023-02-18T06:31:17;14.20;97.30
10447;DHT22;5271;44.422;26.092;2023-02-18T06:33:44;14.20;97.40
10447;DHT22;5271;44.422;26.092;2023-02-18T06:36:11;14.20;97.40
10447;DHT22;5271;44.422;26.092;2023-02-18T06:38:39;14.20;97.40
10447;DHT22;5271;44.422;26.092;2023-02-18T06:41:06;14.20;97.40
10447;DHT22;5271;44.422;26.092;2023-02-18T06:43:33;14.20;97.50
10447;DHT22;5271;44.422;26.092;2023-02-18T06:46:02;14.20;97.50
10447;DHT22;5271;44.422;26.092;2023-02-18T06:48:29;14.20;97.50
10447;DHT22;5271;44.422;26.092;2023-02-18T06:50:56;14.20;97.60
10447;DHT22;5271;44.422;26.092;2023-02-18T06:53:23;14.20;97.50
10447;DHT22;5271;44.422;26.092;2023-02-18T06:55:50;14.20;97.50
10447;DHT22;5271;44.422;26.092;2023-02-18T06:58:17;14.20;97.50
10447;DHT22;5271;44.422;26.092;2023-02-18T07:00:44;14.20;97.50
10447;DHT22;5271;44.422;26.092;2023-02-18T07:03:12;14.20;97.50
10447;DHT22;5271;44.422;26.092;2023-02-18T07:05:40;14.20;97.50
10447;DHT22;5271;44.422;26.092;2023-02-18T07:08:07;14.20;97.50
10447;DHT22;5271;44.422;26.092;2023-02-18T07:10:33;14.20;97.50
10447;DHT22;5271;44.422;26.092;2023-02-18T07:13:00;14.20;97.50
10447;DHT22;5271;44.422;26.092;2023-02-18T07:15:27;14.20;97.60
10447;DHT22;5271;44.422;26.092;2023-02-18T07:17:54;14.20;97.70
10447;DHT22;5271;44.422;26.092;2023-02-18T07:20:24;14.10;97.70
10447;DHT22;5271;44.422;26.092;2023-02-18T07:22:51;14.20;97.80
10447;DHT22;5271;44.422;26.092;2023-02-18T07:25:19;14.10;97.70
10447;DHT22;5271;44.422;26.092;2023-02-18T07:27:45;14.20;97.80
10447;DHT22;5271;44.422;26.092;2023-02-18T07:30:13;14.20;97.70
10447;DHT22;5271;44.422;26.092;2023-02-18T07:32:40;14.20;97.70
10447;DHT22;5271;44.422;26.092;2023-02-18T07:35:07;14.20;97.70
10447;DHT22;5271;44.422;26.092;2023-02-18T07:37:35;14.20;97.80
10447;DHT22;5271;44.422;26.092;2023-02-18T07:40:03;14.20;97.80
10447;DHT22;5271;44.422;26.092;2023-02-18T07:42:29;14.20;97.50
10447;DHT22;5271;44.422;26.092;2023-02-18T07:44:57;14.20;97.60
10447;DHT22;5271;44.422;26.092;2023-02-18T07:47:24;14.10;97.90
10447;DHT22;5271;44.422;26.092;2023-02-18T07:49:50;14.10;98.00
10447;DHT22;5271;44.422;26.092;2023-02-18T07:52:17;14.10;98.10
10447;DHT22;5271;44.422;26.092;2023-02-18T07:54:46;14.10;98.10
10447;DHT22;5271;44.422;26.092;2023-02-18T07:57:12;14.20;98.20
10447;DHT22;5271;44.422;26.092;2023-02-18T07:59:40;14.20;98.10
10447;DHT22;5271;44.422;26.092;2023-02-18T08:02:12;14.20;98.20
10447;DHT22;5271;44.422;26.092;2023-02-18T08:04:41;14.20;98.20
10447;DHT22;5271;44.422;26.092;2023-02-18T08:07:11;14.20;98.10
10447;DHT22;5271;44.422;26.092;2023-02-18T08:09:39;14.20;98.20
10447;DHT22;5271;44.422;26.092;2023-02-18T08:12:07;14.20;98.20
10447;DHT22;5271;44.422;26.092;2023-02-18T08:14:34;14.30;98.10
10447;DHT22;5271;44.422;26.092;2023-02-18T08:17:01;14.30;98.00
10447;DHT22;5271;44.422;26.092;2023-02-18T08:19:28;14.20;98.00
10447;DHT22;5271;44.422;26.092;2023-02-18T08:21:55;14.20;98.00
10447;DHT22;5271;44.422;26.092;2023-02-18T08:24:22;14.20;98.00
10447;DHT22;5271;44.422;26.092;2023-02-18T08:26:49;14.30;98.10
10447;DHT22;5271;44.422;26.092;2023-02-18T08:29:17;14.30;98.10
10447;DHT22;5271;44.422;26.092;2023-02-18T08:31:44;14.40;98.00
10447;DHT22;5271;44.422;26.092;2023-02-18T08:34:10;14.30;98.00
10447;DHT22;5271;44.422;26.092;2023-02-18T08:36:37;14.40;98.20
10447;DHT22;5271;44.422;26.092;2023-02-18T08:39:04;14.40;98.10
10447;DHT22;5271;44.422;26.092;2023-02-18T08:41:31;14.40;98.30
10447;DHT22;5271;44.422;26.092;2023-02-18T08:43:58;14.40;98.30
10447;DHT22;5271;44.422;26.092;2023-02-18T08:46:26;14.40;98.30
10447;DHT22;5271;44.422;26.092;2023-02-18T08:48:53;14.40;98.40
10447;DHT22;5271;44.422;26.092;2023-02-18T08:51:21;14.40;98.50
10447;DHT22;5271;44.422;26.092;2023-02-18T08:53:48;14.50;98.60
10447;DHT22;5271;44.422;26.092;2023-02-18T08:56:16;14.50;98.70
10447;DHT22;5271;44.422;26.092;2023-02-18T08:58:43;14.40;98.70
10447;DHT22;5271;44.422;26.092;2023-02-18T09:01:11;14.40;99.10
10447;DHT22;5271;44.422;26.092;2023-02-18T09:03:40;14.50;98.80
10447;DHT22;5271;44.422;26.092;2023-02-18T09:06:07;14.50;99.00
10447;DHT22;5271;44.422;26.092;2023-02-18T09:08:34;14.50;99.00
10447;DHT22;5271;44.422;26.092;2023-02-18T09:11:02;14.50;99.00
10447;DHT22;5271;44.422;26.092;2023-02-18T09:13:30;14.50;99.00
10447;DHT22;5271;44.422;26.092;2023-02-18T09:15:59;14.60;99.00
10447;DHT22;5271;44.422;26.092;2023-02-18T09:18:26;14.70;98.90
10447;DHT22;5271;44.422;26.092;2023-02-18T09:20:57;14.70;98.80
10447;DHT22;5271;44.422;26.092;2023-02-18T09:23:24;14.80;98.70
10447;DHT22;5271;44.422;26.092;2023-02-18T09:25:51;14.80;98.70
10447;DHT22;5271;44.422;26.092;2023-02-18T09:28:19;14.80;98.80
10447;DHT22;5271;44.422;26.092;2023-02-18T09:30:46;14.80;98.70
10447;DHT22;5271;44.422;26.092;2023-02-18T09:33:13;14.80;98.80
10447;DHT22;5271;44.422;26.092;2023-02-18T09:35:40;14.90;98.80
10447;DHT22;5271;44.422;26.092;2023-02-18T09:38:10;14.90;98.80
10447;DHT22;5271;44.422;26.092;2023-02-18T09:40:41;14.90;98.70
10447;DHT22;5271;44.422;26.092;2023-02-18T09:43:18;15.00;98.70
10447;DHT22;5271;44.422;26.092;2023-02-18T09:45:49;15.00;98.60
10447;DHT22;5271;44.422;26.092;2023-02-18T09:48:16;15.00;98.60
10447;DHT22;5271;44.422;26.092;2023-02-18T09:50:47;15.10;98.60
10447;DHT22;5271;44.422;26.092;2023-02-18T09:53:17;15.10;98.60
10447;DHT22;5271;44.422;26.092;2023-02-18T09:55:44;15.10;98.60
10447;DHT22;5271;44.422;26.092;2023-02-18T09:58:13;15.20;98.50
10447;DHT22;5271;44.422;26.092;2023-02-18T10:00:42;15.20;98.30
10447;DHT22;5271;44.422;26.092;2023-02-18T10:03:12;15.20;98.20
10447;DHT22;5271;44.422;26.092;2023-02-18T10:05:49;15.30;98.40
10447;DHT22;5271;44.422;26.092;2023-02-18T10:08:24;15.30;98.50
10447;DHT22;5271;44.422;26.092;2023-02-18T10:10:51;15.30;98.50
10447;DHT22;5271;44.422;26.092;2023-02-18T10:13:20;15.30;98.50
10447;DHT22;5271;44.422;26.092;2023-02-18T10:15:48;15.30;98.60
10447;DHT22;5271;44.422;26.092;2023-02-18T10:18:26;15.30;98.80
10447;DHT22;5271;44.422;26.092;2023-02-18T10:21:05;15.30;98.60
10447;DHT22;5271;44.422;26.092;2023-02-18T10:23:37;15.40;98.50
10447;DHT22;5271;44.422;26.092;2023-02-18T10:26:08;15.40;98.50
10447;DHT22;5271;44.422;26.092;2023-02-18T10:28:37;15.50;98.40
10447;DHT22;5271;44.422;26.092;2023-02-18T10:31:07;15.60;98.40
10447;DHT22;5271;44.422;26.092;2023-02-18T10:33:38;15.60;98.30
10447;DHT22;5271;44.422;26.092;2023-02-18T10:36:24;15.60;98.30
10447;DHT22;5271;44.422;26.092;2023-02-18T10:39:20;15.60;98.40
10447;DHT22;5271;44.422;26.092;2023-02-18T10:41:58;15.70;98.40
10447;DHT22;5271;44.422;26.092;2023-02-18T10:44:33;15.60;98.30
10447;DHT22;5271;44.422;26.092;2023-02-18T10:47:13;15.60;98.20
10447;DHT22;5271;44.422;26.092;2023-02-18T10:49:55;15.70;98.30
10447;DHT22;5271;44.422;26.092;2023-02-18T10:52:22;15.70;98.20
10447;DHT22;5271;44.422;26.092;2023-02-18T10:54:58;15.80;98.10
10447;DHT22;5271;44.422;26.092;2023-02-18T10:57:25;15.90;98.00
10447;DHT22;5271;44.422;26.092;2023-02-18T10:59:58;16.00;97.90
10447;DHT22;5271;44.422;26.092;2023-02-18T11:02:28;16.00;97.70
10447;DHT22;5271;44.422;26.092;2023-02-18T11:04:58;16.10;97.70
10447;DHT22;5271;44.422;26.092;2023-02-18T11:07:30;16.10;97.70
10447;DHT22;5271;44.422;26.092;2023-02-18T11:10:00;16.20;97.70
10447;DHT22;5271;44.422;26.092;2023-02-18T11:12:29;16.30;97.60
10447;DHT22;5271;44.422;26.092;2023-02-18T11:15:14;16.50;97.40
10447;DHT22;5271;44.422;26.092;2023-02-18T11:17:42;16.70;97.00
10447;DHT22;5271;44.422;26.092;2023-02-18T11:20:27;16.80;96.80
10447;DHT22;5271;44.422;26.092;2023-02-18T11:23:15;16.80;96.50
10447;DHT22;5271;44.422;26.092;2023-02-18T11:25:53;16.80;96.40
10447;DHT22;5271;44.422;26.092;2023-02-18T11:28:42;16.70;96.90
10447;DHT22;5271;44.422;26.092;2023-02-18T11:31:16;16.70;96.50
10447;DHT22;5271;44.422;26.092;2023-02-18T11:33:48;16.70;96.60
10447;DHT22;5271;44.422;26.092;2023-02-18T11:36:22;16.60;96.50
10447;DHT22;5271;44.422;26.092;2023-02-18T11:38:51;16.60;96.50
10447;DHT22;5271;44.422;26.092;2023-02-18T11:41:27;16.70;96.60
10447;DHT22;5271;44.422;26.092;2023-02-18T11:43:56;16.70;96.50
10447;DHT22;5271;44.422;26.092;2023-02-18T11:46:25;16.70;96.50
10447;DHT22;5271;44.422;26.092;2023-02-18T11:48:53;16.70;96.40
10447;DHT22;5271;44.422;26.092;2023-02-18T11:51:23;16.70;96.30
10447;DHT22;5271;44.422;26.092;2023-02-18T11:53:59;16.70;96.40
10447;DHT22;5271;44.422;26.092;2023-02-18T11:56:30;16.70;96.10
10447;DHT22;5271;44.422;26.092;2023-02-18T11:58:58;16.70;96.20
10447;DHT22;5271;44.422;26.092;2023-02-18T12:01:35;16.60;96.30
10447;DHT22;5271;44.422;26.092;2023-02-18T12:04:09;16.60;96.40
10447;DHT22;5271;44.422;26.092;2023-02-18T12:06:40;16.50;96.50
10447;DHT22;5271;44.422;26.092;2023-02-18T12:09:19;16.50;96.60
10447;DHT22;5271;44.422;26.092;2023-02-18T12:11:51;16.50;96.60
10447;DHT22;5271;44.422;26.092;2023-02-18T12:14:20;16.50;96.40
10447;DHT22;5271;44.422;26.092;2023-02-18T12:17:04;16.50;96.30
10447;DHT22;5271;44.422;26.092;2023-02-18T12:19:52;16.60;96.10
10447;DHT22;5271;44.422;26.092;2023-02-18T12:22:27;16.70;96.00
10447;DHT22;5271;44.422;26.092;2023-02-18T12:25:08;16.80;95.90
10447;DHT22;5271;44.422;26.092;2023-02-18T12:27:47;16.80;95.70
10447;DHT22;5271;44.422;26.092;2023-02-18T12:30:35;16.80;95.70
10447;DHT22;5271;44.422;26.092;2023-02-18T12:33:13;16.80;95.80
10447;DHT22;5271;44.422;26.092;2023-02-18T12:35:55;16.80;95.80
10447;DHT22;5271;44.422;26.092;2023-02-18T12:38:49;16.80;95.70
10447;DHT22;5271;44.422;26.092;2023-02-18T12:41:37;16.80;95.50
10447;DHT22;5271;44.422;26.092;2023-02-18T12:44:19;16.80;95.60
10447;DHT22;5271;44.422;26.092;2023-02-18T12:50:26;16.80;95.40
10447;DHT22;5271;44.422;26.092;2023-02-18T12:53:12;16.90;95.10
10447;DHT22;5271;44.422;26.092;2023-02-18T12:55:56;16.90;95.20
10447;DHT22;5271;44.422;26.092;2023-02-18T12:58:39;17.00;95.10
10447;DHT22;5271;44.422;26.092;2023-02-18T13:04:20;17.20;94.20
10447;DHT22;5271;44.422;26.092;2023-02-18T13:07:12;17.20;94.00
10447;DHT22;5271;44.422;26.092;2023-02-18T13:09:56;17.30;93.50
10447;DHT22;5271;44.422;26.092;2023-02-18T13:12:28;17.30;93.60
10447;DHT22;5271;44.422;26.092;2023-02-18T13:15:00;17.30;93.50
10447;DHT22;5271;44.422;26.092;2023-02-18T13:17:34;17.30;93.10
10447;DHT22;5271;44.422;26.092;2023-02-18T13:20:04;17.40;93.60
10447;DHT22;5271;44.422;26.092;2023-02-18T13:22:33;17.40;93.20
10447;DHT22;5271;44.422;26.092;2023-02-18T13:25:00;17.40;93.20
10447;DHT22;5271;44.422;26.092;2023-02-18T13:27:32;17.40;93.20
10447;DHT22;5271;44.422;26.092;2023-02-18T13:30:15;17.40;93.10
10447;DHT22;5271;44.422;26.092;2023-02-18T13:32:52;17.40;92.60
10447;DHT22;5271;44.422;26.092;2023-02-18T13:35:28;17.40;92.50
10447;DHT22;5271;44.422;26.092;2023-02-18T13:38:15;17.40;92.50
10447;DHT22;5271;44.422;26.092;2023-02-18T13:40:46;17.30;92.40
10447;DHT22;5271;44.422;26.092;2023-02-18T13:43:18;17.20;92.60
10447;DHT22;5271;44.422;26.092;2023-02-18T13:46:02;17.20;92.50
10447;DHT22;5271;44.422;26.092;2023-02-18T13:48:33;17.20;91.90
10447;DHT22;5271;44.422;26.092;2023-02-18T13:51:03;17.10;92.50
10447;DHT22;5271;44.422;26.092;2023-02-18T13:53:31;17.20;92.30
10447;DHT22;5271;44.422;26.092;2023-02-18T13:56:04;17.20;92.30
10447;DHT22;5271;44.422;26.092;2023-02-18T13:58:38;17.20;92.30
10447;DHT22;5271;44.422;26.092;2023-02-18T14:01:14;17.20;92.10
10447;DHT22;5271;44.422;26.092;2023-02-18T14:03:59;17.20;92.00
10447;DHT22;5271;44.422;26.092;2023-02-18T14:06:29;17.10;92.20
10447;DHT22;5271;44.422;26.092;2023-02-18T14:12:15;17.10;92.00
10447;DHT22;5271;44.422;26.092;2023-02-18T14:14:43;17.10;92.00
10447;DHT22;5271;44.422;26.092;2023-02-18T14:20:41;17.00;91.90
10447;DHT22;5271;44.422;26.092;2023-02-18T14:26:31;16.90;92.00
10447;DHT22;5271;44.422;26.092;2023-02-18T14:29:03;16.90;92.00
10447;DHT22;5271;44.422;26.092;2023-02-18T14:31:44;17.00;91.80
10447;DHT22;5271;44.422;26.092;2023-02-18T14:34:36;17.00;91.80
10447;DHT22;5271;44.422;26.092;2023-02-18T14:40:13;17.00;91.40
10447;DHT22;5271;44.422;26.092;2023-02-18T14:42:45;17.00;91.30
10447;DHT22;5271;44.422;26.092;2023-02-18T14:45:24;17.00;91.20
10447;DHT22;5271;44.422;26.092;2023-02-18T14:48:10;17.00;90.80
10447;DHT22;5271;44.422;26.092;2023-02-18T14:50:41;17.00;91.00
10447;DHT22;5271;44.422;26.092;2023-02-18T14:53:14;17.00;91.00
10447;DHT22;5271;44.422;26.092;2023-02-18T14:55:45;17.00;91.00
10447;DHT22;5271;44.422;26.092;2023-02-18T14:58:23;17.00;91.20
10447;DHT22;5271;44.422;26.092;2023-02-18T15:00:51;17.00;91.10
10447;DHT22;5271;44.422;26.092;2023-02-18T15:03:19;17.00;91.20
10447;DHT22;5271;44.422;26.092;2023-02-18T15:05:47;16.90;90.90
10447;DHT22;5271;44.422;26.092;2023-02-18T15:08:18;17.00;91.00
10447;DHT22;5271;44.422;26.092;2023-02-18T15:10:48;17.00;90.60
10447;DHT22;5271;44.422;26.092;2023-02-18T15:13:18;17.00;90.80
10447;DHT22;5271;44.422;26.092;2023-02-18T15:15:48;17.00;90.80
10447;DHT22;5271;44.422;26.092;2023-02-18T15:18:20;17.00;90.70
10447;DHT22;5271;44.422;26.092;2023-02-18T15:20:49;17.00;90.80
10447;DHT22;5271;44.422;26.092;2023-02-18T15:23:17;17.00;90.80
10447;DHT22;5271;44.422;26.092;2023-02-18T15:25:48;17.00;90.80
10447;DHT22;5271;44.422;26.092;2023-02-18T15:28:24;17.00;90.80
10447;DHT22;5271;44.422;26.092;2023-02-18T15:30:52;17.10;90.70
10447;DHT22;5271;44.422;26.092;2023-02-18T15:33:20;17.10;90.60
10447;DHT22;5271;44.422;26.092;2023-02-18T15:35:47;17.10;90.40
10447;DHT22;5271;44.422;26.092;2023-02-18T15:38:15;17.10;90.50
10447;DHT22;5271;44.422;26.092;2023-02-18T15:40:47;17.10;90.50
10447;DHT22;5271;44.422;26.092;2023-02-18T15:43:18;17.10;90.40
10447;DHT22;5271;44.422;26.092;2023-02-18T15:45:46;17.10;90.20
10447;DHT22;5271;44.422;26.092;2023-02-18T15:48:23;17.10;90.30
10447;DHT22;5271;44.422;26.092;2023-02-18T15:50:54;17.20;90.10
10447;DHT22;5271;44.422;26.092;2023-02-18T15:53:22;17.10;90.30
10447;DHT22;5271;44.422;26.092;2023-02-18T15:55:53;17.10;90.30
10447;DHT22;5271;44.422;26.092;2023-02-18T15:58:22;17.10;90.20
10447;DHT22;5271;44.422;26.092;2023-02-18T16:00:52;17.10;90.40
10447;DHT22;5271;44.422;26.092;2023-02-18T16:03:21;17.10;90.40
10447;DHT22;5271;44.422;26.092;2023-02-18T16:05:49;17.10;90.30
10447;DHT22;5271;44.422;26.092;2023-02-18T16:08:22;17.00;90.30
10447;DHT22;5271;44.422;26.092;2023-02-18T16:10:53;17.00;90.30
10447;DHT22;5271;44.422;26.092;2023-02-18T16:13:21;17.00;90.30
10447;DHT22;5271;44.422;26.092;2023-02-18T16:15:51;17.00;90.20
10447;DHT22;5271;44.422;26.092;2023-02-18T16:18:28;17.00;90.20
10447;DHT22;5271;44.422;26.092;2023-02-18T16:20:59;17.00;90.30